Time;durP1;ratioP1;P1;durP2;ratioP2;P2;SDS_P1;SDS_P2;PMS_P1;PMS_P2;Temp;Humidity;BMP_temperature;BMP_pressure;BME280_temperature;BME280_humidity;BME280_pressure;Samples;Min_cycle;Max_cycle;Signal;HPM_P1;HPM_P2
2022/01/27 00:02:52;;;;;;;51.38;32.05;;;4.70;99.90;;;;;;5088081;28;20041;-51
2022/01/27 00:05:20;;;;;;;47.40;30.60;;;4.70;99.90;;;;;;5085886;28;20048;-49
2022/01/27 00:13:16;;;;;;;54.15;32.35;;;4.80;99.90;;;;;;5078438;28;20064;-51
2022/01/27 00:15:45;;;;;;;49.85;31.17;;;4.70;99.90;;;;;;5084996;28;20064;-51
2022/01/27 00:18:17;;;;;;;55.45;33.78;;;4.80;99.90;;;;;;5087072;28;20040;-51
2022/01/27 00:20:47;;;;;;;50.38;32.97;;;4.80;99.90;;;;;;5087743;28;20435;-50
2022/01/27 00:23:13;;;;;;;53.63;31.42;;;4.80;99.90;;;;;;5083649;28;20029;-51
2022/01/27 00:25:39;;;;;;;47.03;32.03;;;4.80;99.90;;;;;;5077636;28;20025;-50
2022/01/27 00:28:07;;;;;;;49.65;33.03;;;4.80;99.90;;;;;;5084006;28;20045;-50
2022/01/27 00:30:34;;;;;;;50.72;32.85;;;4.80;99.90;;;;;;5087384;28;20052;-49
2022/01/27 00:33:00;;;;;;;49.13;32.42;;;4.80;99.90;;;;;;5088198;28;20094;-51
2022/01/27 00:35:25;;;;;;;51.00;31.90;;;4.80;99.90;;;;;;5073707;28;20040;-49
2022/01/27 00:37:51;;;;;;;51.78;33.03;;;4.80;99.90;;;;;;5080126;28;20033;-53
2022/01/27 00:40:17;;;;;;;47.53;31.20;;;4.80;99.90;;;;;;5079254;28;20429;-52
2022/01/27 00:42:42;;;;;;;44.53;30.27;;;4.80;99.90;;;;;;5081183;28;20037;-50
2022/01/27 00:45:09;;;;;;;49.85;31.55;;;4.80;99.90;;;;;;5080292;28;20463;-50
2022/01/27 00:47:35;;;;;;;51.03;32.60;;;4.80;99.90;;;;;;5082556;28;20051;-50
2022/01/27 00:50:01;;;;;;;46.85;31.48;;;4.80;99.90;;;;;;5081373;28;20060;-51
2022/01/27 00:52:51;;;;;;;47.83;30.65;;;4.80;99.90;;;;;;5081701;28;20296;-52
2022/01/27 00:55:14;;;;;;;45.35;31.20;;;4.80;99.90;;;;;;5084342;28;20049;-51
2022/01/27 00:57:59;;;;;;;46.57;30.63;;;4.80;99.90;;;;;;5085896;28;20048;-54
2022/01/27 01:00:31;;;;;;;48.03;31.95;;;4.90;99.90;;;;;;5082709;28;20052;-53
2022/01/27 01:03:04;;;;;;;45.80;30.45;;;4.80;99.90;;;;;;5076814;28;20056;-52
2022/01/27 01:16:44;;;;;;;44.42;30.63;;;4.80;99.90;;;;;;5088074;28;20041;-49
2022/01/27 01:19:44;;;;;;;45.28;30.42;;;4.80;99.90;;;;;;5078782;28;20106;-53
2022/01/27 01:30:33;;;;;;;42.35;29.73;;;4.80;99.90;;;;;;5076970;28;20048;-53
2022/01/27 01:32:59;;;;;;;41.55;28.65;;;4.80;99.90;;;;;;5072375;28;20036;-53
2022/01/27 01:35:39;;;;;;;44.08;28.33;;;4.80;99.90;;;;;;5074249;28;20044;-53
2022/01/27 01:38:04;;;;;;;46.00;30.02;;;4.80;99.90;;;;;;5077903;28;20037;-53
2022/01/27 01:40:30;;;;;;;44.78;29.73;;;4.80;99.90;;;;;;5081024;28;20051;-53
2022/01/27 01:42:56;;;;;;;44.80;29.40;;;4.80;99.90;;;;;;5077367;28;20069;-51
2022/01/27 01:45:22;;;;;;;46.55;29.60;;;4.80;99.90;;;;;;5086447;28;20079;-51
2022/01/27 01:47:49;;;;;;;44.22;30.15;;;4.80;99.90;;;;;;5083601;28;20048;-50
2022/01/27 01:50:15;;;;;;;42.47;29.58;;;4.80;99.90;;;;;;5070972;28;20451;-51
2022/01/27 01:52:43;;;;;;;44.75;29.70;;;4.80;99.90;;;;;;5087706;28;20040;-53
2022/01/27 01:55:09;;;;;;;43.60;29.85;;;4.80;99.90;;;;;;5086101;28;20055;-52
2022/01/27 01:57:36;;;;;;;41.05;28.38;;;4.90;99.90;;;;;;5079491;28;20044;-50
2022/01/27 02:00:05;;;;;;;42.75;30.60;;;4.90;99.90;;;;;;5078799;28;20100;-51
2022/01/27 02:02:31;;;;;;;44.65;30.20;;;4.90;99.90;;;;;;5082156;28;20086;-53
2022/01/27 02:04:56;;;;;;;44.67;29.20;;;4.90;99.90;;;;;;5074584;28;20048;-52
2022/01/27 02:10:32;;;;;;;43.58;28.95;;;4.90;99.90;;;;;;5086506;28;20072;-53
2022/01/27 02:18:29;;;;;;;49.20;29.48;;;4.90;99.90;;;;;;5088458;28;20144;-49
2022/01/27 02:20:55;;;;;;;42.45;29.30;;;4.90;99.90;;;;;;5074301;28;20075;-51
2022/01/27 02:23:20;;;;;;;42.13;29.40;;;4.90;99.90;;;;;;5077223;28;20071;-51
2022/01/27 02:25:46;;;;;;;44.67;30.83;;;4.90;99.90;;;;;;5075552;28;20050;-53
2022/01/27 02:28:12;;;;;;;42.08;29.15;;;4.90;99.90;;;;;;5084981;28;20049;-53
2022/01/27 02:30:37;;;;;;;43.28;28.67;;;4.90;99.90;;;;;;5085732;28;20037;-49
2022/01/27 02:33:03;;;;;;;41.08;29.15;;;4.90;99.90;;;;;;5079226;28;20044;-48
2022/01/27 02:35:32;;;;;;;43.33;30.15;;;4.90;99.90;;;;;;5088539;28;20118;-48
2022/01/27 02:37:59;;;;;;;43.53;29.05;;;4.90;99.90;;;;;;5081948;28;20096;-51
2022/01/27 02:40:34;;;;;;;40.50;29.10;;;4.90;99.90;;;;;;5073237;28;20045;-51
2022/01/27 02:43:02;;;;;;;40.45;27.60;;;4.90;99.90;;;;;;5084926;28;20088;-52
2022/01/27 02:45:44;;;;;;;43.58;28.33;;;4.90;99.90;;;;;;5081999;28;20067;-50
2022/01/27 02:48:12;;;;;;;37.50;27.40;;;4.90;99.90;;;;;;5074071;28;20052;-51
2022/01/27 02:50:38;;;;;;;39.33;27.15;;;5.00;99.90;;;;;;5076026;28;20041;-52
2022/01/27 02:53:06;;;;;;;40.90;27.88;;;5.00;99.90;;;;;;5086312;28;20051;-50
2022/01/27 02:55:31;;;;;;;;;;;5.00;99.90;;;;;;5081608;28;20037;-51
2022/01/27 02:57:58;;;;;;;40.42;26.63;;;5.00;99.90;;;;;;5078287;28;20068;-51
2022/01/27 03:00:24;;;;;;;39.25;26.50;;;5.00;99.90;;;;;;5086833;28;20067;-51
2022/01/27 03:02:49;;;;;;;38.10;26.65;;;5.10;99.90;;;;;;5075992;28;20040;-51
2022/01/27 03:05:15;;;;;;;41.38;26.42;;;5.00;99.90;;;;;;5079786;28;20040;-49
2022/01/27 03:07:41;;;;;;;39.78;26.70;;;5.10;99.90;;;;;;5072068;28;20049;-53
2022/01/27 03:10:07;;;;;;;40.80;26.23;;;5.10;99.90;;;;;;5081623;28;20101;-50
2022/01/27 03:12:36;;;;;;;38.40;26.65;;;5.10;99.90;;;;;;5077490;28;20165;-49
2022/01/27 03:15:02;;;;;;;37.20;25.63;;;5.10;99.90;;;;;;5078017;28;20445;-52
2022/01/27 03:17:28;;;;;;;38.50;27.67;;;5.10;99.90;;;;;;5084703;28;20089;-52
2022/01/27 03:19:54;;;;;;;36.97;27.08;;;5.10;99.90;;;;;;5079491;28;20098;-52
2022/01/27 03:22:20;;;;;;;37.83;27.05;;;5.10;99.90;;;;;;5076500;28;20045;-52
2022/01/27 03:24:46;;;;;;;38.22;26.73;;;5.10;99.90;;;;;;5087015;28;20113;-48
2022/01/27 03:27:19;;;;;;;36.83;25.95;;;5.10;99.90;;;;;;5074845;28;20047;-49
2022/01/27 03:29:45;;;;;;;39.67;26.48;;;5.10;99.90;;;;;;5081768;28;20048;-50
2022/01/27 03:32:11;;;;;;;39.75;27.15;;;5.10;99.90;;;;;;5095787;28;20041;-49
2022/01/27 03:34:36;;;;;;;41.88;27.48;;;5.10;99.90;;;;;;5082192;28;20044;-50
2022/01/27 03:37:03;;;;;;;36.90;25.55;;;5.10;99.90;;;;;;5084982;28;20056;-51
2022/01/27 03:39:28;;;;;;;35.72;25.77;;;5.10;99.90;;;;;;5077162;28;20024;-49
2022/01/27 03:41:56;;;;;;;38.40;28.00;;;5.10;99.90;;;;;;5085162;28;20047;-51
2022/01/27 03:44:22;;;;;;;40.25;26.63;;;5.10;99.90;;;;;;5080380;28;20466;-51
2022/01/27 03:46:49;;;;;;;41.50;27.40;;;5.20;99.90;;;;;;5083029;28;20044;-50
2022/01/27 03:49:15;;;;;;;42.83;27.20;;;5.20;99.90;;;;;;5084532;28;20067;-50
2022/01/27 03:51:41;;;;;;;37.40;26.60;;;5.20;99.90;;;;;;5088390;28;20036;-53
2022/01/27 03:54:07;;;;;;;40.50;26.70;;;5.20;99.90;;;;;;5084038;28;20058;-52
2022/01/27 03:56:33;;;;;;;38.55;26.63;;;5.20;99.90;;;;;;5080201;28;20037;-52
2022/01/27 03:58:58;;;;;;;38.80;26.48;;;5.20;99.90;;;;;;5072083;28;20108;-51
2022/01/27 04:01:24;;;;;;;38.88;27.35;;;5.20;99.90;;;;;;5077186;28;20410;-51
2022/01/27 04:03:53;;;;;;;40.05;27.20;;;5.20;99.90;;;;;;5075109;28;20071;-49
2022/01/27 04:06:22;;;;;;;40.92;27.30;;;5.20;99.90;;;;;;5087509;28;20092;-50
2022/01/27 04:08:48;;;;;;;38.80;27.60;;;5.20;99.90;;;;;;5086795;28;20040;-49
2022/01/27 04:11:13;;;;;;;40.15;27.10;;;5.20;99.90;;;;;;5072285;28;20056;-52
2022/01/27 04:13:39;;;;;;;39.28;27.92;;;5.10;99.90;;;;;;5071244;28;20107;-49
2022/01/27 04:16:05;;;;;;;40.88;26.40;;;5.20;99.90;;;;;;5077075;28;20064;-50
2022/01/27 04:18:31;;;;;;;37.25;26.80;;;5.20;99.90;;;;;;5084341;28;20129;-50
2022/01/27 04:20:57;;;;;;;40.60;26.38;;;5.10;99.90;;;;;;5079951;28;20109;-50
2022/01/27 04:23:22;;;;;;;41.50;28.77;;;5.20;99.90;;;;;;5079616;28;20064;-51
2022/01/27 04:25:49;;;;;;;47.45;28.17;;;5.10;99.90;;;;;;5086322;28;20045;-49
2022/01/27 04:28:21;;;;;;;40.25;27.17;;;5.20;99.90;;;;;;5084359;28;20041;-53
2022/01/27 04:30:47;;;;;;;40.40;26.73;;;5.20;99.90;;;;;;5086076;28;20056;-49
2022/01/27 04:33:12;;;;;;;37.97;27.17;;;5.20;99.90;;;;;;5087090;28;20059;-50
2022/01/27 04:35:44;;;;;;;36.55;26.63;;;5.20;99.90;;;;;;5086170;28;20048;-52
2022/01/27 04:43:13;;;;;;;37.33;26.55;;;5.20;99.90;;;;;;5077663;28;19991;-50
2022/01/27 04:45:55;;;;;;;39.95;25.52;;;5.30;99.90;;;;;;5077254;28;20853;-51
2022/01/27 04:48:23;;;;;;;40.47;26.15;;;5.30;99.90;;;;;;5088019;28;20080;-49
2022/01/27 04:50:50;;;;;;;38.38;26.55;;;5.30;99.90;;;;;;5091785;28;20051;-52
2022/01/27 04:53:29;;;;;;;41.70;26.30;;;5.30;99.90;;;;;;5078495;28;20222;-51
2022/01/27 04:55:56;;;;;;;38.45;25.50;;;5.30;99.90;;;;;;5083052;28;20041;-50
2022/01/27 04:58:29;;;;;;;40.45;26.05;;;5.30;99.90;;;;;;5093072;28;20072;-51
2022/01/27 05:00:58;;;;;;;47.17;26.00;;;5.30;99.90;;;;;;5082055;28;20033;-51
2022/01/27 05:03:35;;;;;;;39.22;26.48;;;5.30;99.90;;;;;;5087971;28;20115;-49
2022/01/27 05:06:01;;;;;;;38.40;25.20;;;5.30;99.90;;;;;;5074711;28;20075;-50
2022/01/27 05:08:26;;;;;;;38.92;24.75;;;5.40;99.90;;;;;;5087829;28;20037;-52
2022/01/27 05:10:59;;;;;;;38.70;25.13;;;5.40;99.90;;;;;;5080581;28;20047;-49
2022/01/27 05:13:28;;;;;;;38.45;25.45;;;5.40;99.90;;;;;;5082744;28;20053;-48
2022/01/27 05:15:54;;;;;;;41.65;25.42;;;5.40;99.90;;;;;;5078399;28;20096;-49
2022/01/27 05:18:20;;;;;;;36.15;23.77;;;5.40;99.90;;;;;;5081253;28;20079;-50
2022/01/27 05:20:46;;;;;;;36.53;25.00;;;5.40;99.90;;;;;;5088899;28;20063;-49
2022/01/27 05:23:13;;;;;;;36.72;25.83;;;5.30;99.90;;;;;;5089188;28;20044;-48
2022/01/27 05:25:38;;;;;;;38.15;25.35;;;5.40;99.90;;;;;;5082712;28;20139;-50
2022/01/27 05:28:06;;;;;;;37.35;24.77;;;5.30;99.90;;;;;;5092138;28;20136;-49
2022/01/27 05:30:32;;;;;;;44.35;26.15;;;5.40;99.90;;;;;;5092250;28;20048;-49
2022/01/27 05:32:57;;;;;;;48.17;26.65;;;5.40;99.90;;;;;;5091663;28;20126;-48
2022/01/27 05:35:23;;;;;;;44.45;27.80;;;5.30;99.90;;;;;;5079726;28;20041;-51
2022/01/27 05:37:48;;;;;;;42.17;27.40;;;5.30;99.90;;;;;;5089634;28;20044;-51
2022/01/27 05:40:14;;;;;;;42.35;25.77;;;5.30;99.90;;;;;;5092244;28;20094;-52
2022/01/27 05:42:39;;;;;;;46.75;26.80;;;5.30;99.90;;;;;;5083241;28;20052;-52
2022/01/27 05:45:06;;;;;;;40.25;25.05;;;5.30;99.90;;;;;;5074008;28;20075;-48
2022/01/27 05:47:31;;;;;;;41.05;25.67;;;5.40;99.90;;;;;;5087222;28;20033;-52
2022/01/27 05:49:57;;;;;;;39.78;25.70;;;5.40;99.90;;;;;;5090832;28;20430;-49
2022/01/27 05:52:22;;;;;;;39.83;25.70;;;5.40;99.90;;;;;;5088252;28;20075;-55
2022/01/27 05:54:48;;;;;;;41.30;25.90;;;5.40;99.90;;;;;;5082916;28;20044;-52
2022/01/27 05:57:14;;;;;;;42.50;26.05;;;5.40;99.90;;;;;;5081581;28;20091;-53
2022/01/27 05:59:40;;;;;;;36.67;25.55;;;5.40;99.90;;;;;;5091264;28;20082;-49
2022/01/27 06:02:05;;;;;;;36.00;25.10;;;5.40;99.90;;;;;;5085845;28;20033;-48
2022/01/27 06:04:31;;;;;;;35.63;24.58;;;5.50;99.90;;;;;;5090065;28;20025;-52
2022/01/27 06:06:56;;;;;;;37.22;24.20;;;5.50;99.90;;;;;;5089261;28;20124;-51
2022/01/27 06:09:22;;;;;;;36.70;24.90;;;5.50;99.90;;;;;;5091504;28;20040;-50
2022/01/27 06:11:48;;;;;;;37.85;24.67;;;5.50;99.90;;;;;;5086777;28;20029;-52
2022/01/27 06:14:13;;;;;;;38.25;24.35;;;5.50;99.90;;;;;;5090591;28;20037;-50
2022/01/27 06:16:39;;;;;;;41.92;25.58;;;5.50;99.90;;;;;;5082429;28;20037;-51
2022/01/27 06:19:06;;;;;;;40.92;24.95;;;5.60;99.90;;;;;;5084571;28;20053;-50
2022/01/27 06:21:35;;;;;;;39.03;24.92;;;5.50;99.90;;;;;;5087805;28;20049;-50
2022/01/27 06:24:00;;;;;;;;;;;5.50;99.90;;;;;;5081644;28;20040;-49
2022/01/27 06:26:28;;;;;;;42.60;26.63;;;5.50;99.90;;;;;;5087422;28;19943;-52
2022/01/27 06:28:53;;;;;;;46.17;26.65;;;5.50;99.90;;;;;;5084457;28;20123;-50
2022/01/27 06:31:19;;;;;;;47.65;28.45;;;5.50;99.90;;;;;;5086396;28;20063;-52
2022/01/27 06:33:44;;;;;;;45.63;27.27;;;5.50;99.90;;;;;;5089470;28;20040;-49
2022/01/27 06:36:10;;;;;;;47.10;28.15;;;5.40;99.90;;;;;;5092517;28;20044;-52
2022/01/27 06:38:35;;;;;;;49.53;28.98;;;5.40;99.90;;;;;;5087928;28;20037;-49
2022/01/27 06:41:01;;;;;;;49.50;28.92;;;5.40;99.90;;;;;;5083566;28;20075;-50
2022/01/27 06:43:26;;;;;;;47.97;28.73;;;5.40;99.90;;;;;;5083723;28;20114;-50
2022/01/27 06:45:52;;;;;;;47.47;28.35;;;5.40;99.90;;;;;;5071285;28;20087;-52
2022/01/27 06:48:17;;;;;;;55.55;30.15;;;5.40;99.90;;;;;;5075234;28;20041;-52
2022/01/27 06:50:43;;;;;;;52.33;29.85;;;5.40;99.90;;;;;;5083746;28;20078;-50
2022/01/27 06:53:09;;;;;;;52.55;29.00;;;5.40;99.90;;;;;;5084405;28;20047;-50
2022/01/27 06:55:35;;;;;;;54.60;29.80;;;5.40;99.90;;;;;;5077710;28;20047;-48
2022/01/27 06:58:00;;;;;;;57.47;30.70;;;5.40;99.90;;;;;;5081250;28;20040;-50
2022/01/27 07:00:26;;;;;;;54.47;29.42;;;5.40;99.90;;;;;;5082112;28;20041;-55
2022/01/27 07:02:53;;;;;;;57.92;30.45;;;5.40;99.90;;;;;;5077119;28;20116;-54
2022/01/27 07:05:18;;;;;;;52.55;30.63;;;5.40;99.90;;;;;;5078405;28;20045;-52
2022/01/27 07:07:44;;;;;;;62.92;31.52;;;5.40;99.90;;;;;;5082052;28;20035;-52
2022/01/27 07:10:10;;;;;;;53.80;29.35;;;5.40;99.90;;;;;;5088515;28;20029;-52
2022/01/27 07:12:39;;;;;;;58.30;30.50;;;5.40;99.90;;;;;;5079941;28;20049;-51
2022/01/27 07:15:05;;;;;;;62.53;32.28;;;;;;;;;;5092311;28;20075;-53
2022/01/27 07:17:31;;;;;;;61.00;30.77;;;;;;;;;;5083477;28;20041;-48
2022/01/27 07:19:57;;;;;;;60.20;30.55;;;;;;;;;;5091518;28;20052;-52
2022/01/27 07:22:23;;;;;;;62.50;30.27;;;;;;;;;;5080102;28;20048;-52
2022/01/27 07:24:49;;;;;;;63.50;30.00;;;;;;;;;;5091216;28;20044;-51
2022/01/27 07:27:15;;;;;;;59.60;30.75;;;5.50;99.90;;;;;;5090457;28;20049;-52
2022/01/27 07:29:40;;;;;;;55.17;29.10;;;5.50;99.90;;;;;;5077235;28;20057;-53
2022/01/27 07:32:06;;;;;;;59.30;29.20;;;5.50;99.90;;;;;;5072564;28;20048;-48
2022/01/27 07:34:32;;;;;;;63.22;28.65;;;5.50;99.90;;;;;;5082258;28;20087;-51
2022/01/27 07:37:00;;;;;;;55.40;27.63;;;5.60;99.90;;;;;;5086096;28;20744;-50
2022/01/27 07:39:26;;;;;;;51.90;26.75;;;5.60;99.90;;;;;;5081558;28;20053;-52
2022/01/27 07:41:51;;;;;;;49.70;25.55;;;5.60;99.90;;;;;;5086454;28;20041;-48
2022/01/27 07:44:17;;;;;;;48.58;26.25;;;5.70;99.90;;;;;;5083667;28;20045;-50
2022/01/27 07:46:42;;;;;;;50.90;26.08;;;5.70;99.90;;;;;;5078048;28;20053;-49
2022/01/27 07:49:08;;;;;;;44.95;23.73;;;5.80;99.90;;;;;;5074103;28;20101;-51
2022/01/27 07:51:34;;;;;;;43.50;24.70;;;5.80;99.90;;;;;;5088027;28;20040;-49
2022/01/27 07:53:59;;;;;;;43.72;24.50;;;5.80;99.90;;;;;;5082497;28;20020;-52
2022/01/27 07:56:26;;;;;;;43.75;22.90;;;5.80;99.90;;;;;;5090233;28;20044;-50
2022/01/27 07:58:52;;;;;;;48.15;23.40;;;5.90;99.90;;;;;;5084437;28;20052;-49
2022/01/27 08:01:18;;;;;;;40.08;22.27;;;5.90;99.90;;;;;;5077841;28;20033;-50
2022/01/27 08:03:43;;;;;;;43.20;22.08;;;5.90;99.90;;;;;;5070817;28;20037;-50
2022/01/27 08:06:09;;;;;;;41.08;22.42;;;6.00;99.90;;;;;;5077010;28;20051;-48
2022/01/27 08:08:35;;;;;;;36.90;21.20;;;6.00;99.90;;;;;;5073696;28;20048;-50
2022/01/27 08:11:01;;;;;;;37.70;21.40;;;6.00;99.90;;;;;;5078706;28;20059;-49
2022/01/27 08:13:27;;;;;;;34.88;21.27;;;6.10;99.90;;;;;;5077797;28;20108;-48
2022/01/27 08:15:53;;;;;;;38.55;21.38;;;6.10;99.90;;;;;;5070191;28;20044;-47
2022/01/27 08:18:20;;;;;;;36.40;21.02;;;6.10;99.90;;;;;;5078698;28;20063;-50
2022/01/27 08:20:47;;;;;;;35.05;20.30;;;6.10;99.90;;;;;;5086776;28;20036;-47
2022/01/27 08:23:14;;;;;;;31.23;19.80;;;6.10;99.90;;;;;;5078342;28;20037;-49
2022/01/27 08:25:40;;;;;;;35.53;20.67;;;6.20;99.90;;;;;;5080690;28;20361;-48
2022/01/27 08:28:15;;;;;;;34.63;20.98;;;6.20;99.90;;;;;;5081180;28;20056;-47
2022/01/27 08:30:46;;;;;;;43.90;23.20;;;6.20;99.90;;;;;;5092785;28;20047;-53
2022/01/27 08:33:17;;;;;;;41.97;22.73;;;6.30;99.90;;;;;;5089975;28;20118;-49
2022/01/27 08:35:43;;;;;;;38.88;21.88;;;6.30;99.90;;;;;;5091042;28;20535;-49
2022/01/27 08:38:08;;;;;;;37.58;21.92;;;6.30;99.90;;;;;;5092106;28;20068;-49
2022/01/27 08:40:34;;;;;;;41.25;21.40;;;6.30;99.90;;;;;;5081467;28;20032;-49
2022/01/27 08:43:00;;;;;;;35.45;20.98;;;6.30;99.90;;;;;;5090017;28;20047;-51
2022/01/27 08:45:26;;;;;;;40.92;22.67;;;6.40;99.90;;;;;;5086926;28;20045;-53
2022/01/27 08:47:55;;;;;;;38.92;22.23;;;6.40;99.90;;;;;;5079474;28;20032;-51
2022/01/27 08:50:22;;;;;;;41.00;21.95;;;6.40;99.90;;;;;;5081937;28;20051;-50
2022/01/27 08:52:47;;;;;;;41.03;23.02;;;6.40;99.90;;;;;;5090913;28;20044;-49
2022/01/27 08:55:13;;;;;;;42.17;23.35;;;6.40;99.90;;;;;;5093155;28;20070;-50
2022/01/27 08:57:40;;;;;;;35.38;21.08;;;6.40;99.90;;;;;;5090716;28;20040;-53
2022/01/27 09:00:08;;;;;;;45.35;22.95;;;6.40;99.90;;;;;;5089084;28;20189;-49
2022/01/27 09:02:33;;;;;;;47.25;23.90;;;6.50;99.90;;;;;;5089070;28;20060;-51
2022/01/27 09:04:59;;;;;;;42.60;22.42;;;6.50;99.90;;;;;;5086262;28;20044;-49
2022/01/27 09:07:24;;;;;;;42.60;22.42;;;6.50;99.90;;;;;;5083686;28;20053;-48
2022/01/27 09:09:50;;;;;;;41.75;22.45;;;6.60;99.90;;;;;;5083336;28;20424;-48
2022/01/27 09:12:16;;;;;;;43.42;22.13;;;6.50;99.90;;;;;;5085205;28;20040;-48
2022/01/27 09:14:42;;;;;;;49.85;23.80;;;6.50;99.90;;;;;;5079703;28;20032;-51
2022/01/27 09:17:13;;;;;;;45.30;22.67;;;6.60;99.90;;;;;;5092515;28;20075;-47
2022/01/27 09:19:41;;;;;;;43.72;23.40;;;6.60;99.90;;;;;;5076106;28;20095;-49
2022/01/27 09:22:13;;;;;;;44.88;22.90;;;6.70;99.90;;;;;;5077633;28;20055;-49
2022/01/27 09:24:49;;;;;;;40.92;21.73;;;6.70;99.90;;;;;;5077452;28;20067;-49
2022/01/27 09:27:15;;;;;;;41.53;22.60;;;6.70;99.90;;;;;;5073469;28;20075;-51
2022/01/27 09:29:42;;;;;;;40.58;21.33;;;6.80;99.90;;;;;;5075993;28;20513;-51
2022/01/27 09:32:09;;;;;;;39.25;21.48;;;6.80;99.90;;;;;;5081679;28;20040;-53
2022/01/27 09:34:35;;;;;;;37.80;21.20;;;6.80;99.90;;;;;;5081526;28;20088;-53
2022/01/27 09:37:02;;;;;;;43.75;23.30;;;6.90;99.90;;;;;;5084407;28;20124;-51
2022/01/27 09:39:29;;;;;;;33.15;21.75;;;6.90;99.90;;;;;;5076208;28;20037;-51
2022/01/27 09:41:56;;;;;;;38.83;19.70;;;7.00;99.90;;;;;;5093254;28;20049;-50
2022/01/27 09:44:28;;;;;;;36.28;20.40;;;7.00;99.90;;;;;;5090065;28;20045;-48
2022/01/27 09:46:57;;;;;;;37.58;19.40;;;7.00;99.90;;;;;;5082208;28;20520;-48
2022/01/27 09:49:32;;;;;;;41.70;20.52;;;7.00;99.90;;;;;;5079121;28;20049;-49
2022/01/27 09:51:59;;;;;;;39.45;20.35;;;7.10;99.90;;;;;;5091989;28;20037;-49
2022/01/27 09:54:24;;;;;;;38.20;20.00;;;7.20;99.90;;;;;;5085507;28;20463;-48
2022/01/27 09:56:52;;;;;;;34.25;19.17;;;7.30;99.90;;;;;;5082547;28;20040;-50
2022/01/27 09:59:18;;;;;;;38.03;18.73;;;;;;;;;;5089058;28;20097;-49
2022/01/27 10:01:53;;;;;;;36.58;17.10;;;;;;;;;;5078163;28;20033;-50
2022/01/27 10:04:19;;;;;;;30.15;16.48;;;;;;;;;;5082344;28;20152;-49
2022/01/27 10:06:45;;;;;;;32.70;15.60;;;;;;;;;;5081683;28;20102;-50
2022/01/27 10:09:17;;;;;;;37.47;16.67;;;;;;;;;;5081383;28;20089;-50
2022/01/27 10:11:45;;;;;;;32.95;14.98;;;;;;;;;;5085112;28;20115;-49
2022/01/27 10:14:17;;;;;;;27.92;14.57;;;;;;;;;;5089417;28;20039;-51
2022/01/27 10:16:44;;;;;;;29.35;13.65;;;;;;;;;;5099687;28;20049;-49
2022/01/27 10:19:11;;;;;;;25.05;12.65;;;;;;;;;;5092962;28;20052;-51
2022/01/27 10:21:37;;;;;;;29.85;11.95;;;7.70;99.90;;;;;;5081307;28;20037;-49
2022/01/27 10:24:23;;;;;;;32.67;11.95;;;7.70;99.90;;;;;;5093198;28;20486;-51
2022/01/27 10:27:15;;;;;;;24.48;12.15;;;7.80;99.90;;;;;;5077079;28;20128;-49
2022/01/27 10:30:00;;;;;;;26.92;11.32;;;7.80;99.90;;;;;;5082507;28;20398;-51
2022/01/27 10:32:41;;;;;;;30.35;11.65;;;7.90;99.90;;;;;;5093159;28;20040;-49
2022/01/27 10:35:08;;;;;;;24.58;10.82;;;7.90;99.90;;;;;;5093551;28;20048;-47
2022/01/27 10:37:59;;;;;;;25.67;11.35;;;8.00;99.90;;;;;;5092701;28;20060;-53
2022/01/27 10:40:38;;;;;;;26.15;11.02;;;8.00;99.90;;;;;;5073411;28;20039;-51
2022/01/27 10:43:22;;;;;;;27.75;10.15;;;8.00;99.90;;;;;;5078148;28;20104;-50
2022/01/27 10:46:08;;;;;;;30.48;11.13;;;8.10;99.90;;;;;;5089621;28;20058;-48
2022/01/27 10:48:39;;;;;;;24.95;10.88;;;8.00;99.90;;;;;;5091683;28;20082;-52
2022/01/27 10:53:45;;;;;;;23.25;10.13;;;8.00;99.90;;;;;;5085210;28;20067;-48
2022/01/27 10:56:19;;;;;;;28.15;10.50;;;8.00;99.90;;;;;;5074173;28;20119;-49
2022/01/27 10:58:44;;;;;;;25.00;9.57;;;8.00;99.90;;;;;;5088214;28;20060;-48
2022/01/27 11:01:10;;;;;;;25.45;10.52;;;7.90;99.90;;;;;;5077144;28;20040;-48
2022/01/27 11:03:36;;;;;;;25.10;10.82;;;7.90;99.90;;;;;;5088556;28;20088;-48
2022/01/27 11:06:09;;;;;;;26.83;9.90;;;8.00;99.90;;;;;;5088838;28;20574;-51
2022/01/27 11:08:37;;;;;;;23.45;9.55;;;8.00;99.90;;;;;;5085225;28;20052;-49
2022/01/27 11:11:04;;;;;;;22.83;9.13;;;8.00;99.90;;;;;;5076187;28;20491;-51
2022/01/27 11:13:30;;;;;;;24.17;9.32;;;8.00;99.90;;;;;;5084329;28;20105;-48
2022/01/27 11:15:57;;;;;;;22.73;9.10;;;8.10;99.90;;;;;;5079611;28;20091;-48
2022/01/27 11:18:24;;;;;;;21.92;8.57;;;8.10;99.90;;;;;;5082640;28;20097;-49
2022/01/27 11:21:00;;;;;;;22.30;9.07;;;8.10;99.90;;;;;;5085904;28;20047;-50
2022/01/27 11:26:08;;;;;;;19.83;8.00;;;8.20;99.90;;;;;;5082984;28;20104;-48
2022/01/27 11:28:35;;;;;;;20.30;8.32;;;8.20;99.90;;;;;;5083603;28;20041;-48
2022/01/27 11:31:26;;;;;;;19.73;8.23;;;8.10;99.90;;;;;;5082957;28;20079;-48
2022/01/27 11:34:10;;;;;;;21.65;8.52;;;8.20;99.90;;;;;;5086989;28;20051;-48
2022/01/27 11:36:37;;;;;;;23.58;8.38;;;8.20;99.90;;;;;;5071980;28;20045;-49
2022/01/27 11:39:08;;;;;;;23.85;8.18;;;8.30;99.90;;;;;;5084179;28;20086;-50
2022/01/27 11:41:47;;;;;;;23.10;8.57;;;8.30;99.90;;;;;;5087312;28;20037;-51
2022/01/27 11:44:36;;;;;;;21.63;8.13;;;8.40;99.90;;;;;;5083306;28;20074;-50
2022/01/27 11:47:08;;;;;;;20.58;8.13;;;8.40;99.90;;;;;;5087133;28;20055;-51
2022/01/27 11:50:05;;;;;;;18.90;7.80;;;8.50;99.90;;;;;;5083211;28;20092;-48
2022/01/27 11:52:46;;;;;;;22.20;8.67;;;8.50;99.90;;;;;;5075159;28;20048;-49
2022/01/27 11:55:24;;;;;;;22.15;8.10;;;8.50;99.90;;;;;;5082255;28;20047;-54
2022/01/27 11:57:57;;;;;;;;;;;8.70;99.90;;;;;;5078863;28;20044;-47
2022/01/27 12:00:26;;;;;;;14.93;6.63;;;8.80;99.90;;;;;;5084480;28;19920;-52
2022/01/27 12:03:00;;;;;;;21.95;7.45;;;8.80;99.90;;;;;;5082932;28;20088;-50
2022/01/27 12:05:34;;;;;;;19.50;7.05;;;8.80;99.90;;;;;;5080236;28;20043;-49
2022/01/27 12:08:08;;;;;;;16.70;6.32;;;8.70;99.90;;;;;;5094362;28;20032;-49
2022/01/27 12:11:10;;;;;;;19.00;6.28;;;8.70;99.90;;;;;;5087103;28;20032;-50
2022/01/27 12:13:35;;;;;;;;;;;8.70;99.90;;;;;;5086281;28;20043;-49
2022/01/27 12:19:15;;;;;;;18.00;5.90;;;8.90;99.90;;;;;;5083232;28;20144;-48
2022/01/27 12:21:59;;;;;;;19.50;5.38;;;8.90;99.90;;;;;;5077366;28;20053;-49
2022/01/27 12:24:30;;;;;;;15.20;4.85;;;9.00;99.90;;;;;;5083056;28;20048;-49
2022/01/27 12:27:02;;;;;;;17.17;5.38;;;9.10;99.90;;;;;;5082777;28;20041;-51
2022/01/27 12:29:40;;;;;;;22.92;5.93;;;9.10;99.90;;;;;;5083931;28;20071;-49
2022/01/27 12:32:07;;;;;;;18.52;4.88;;;9.20;99.90;;;;;;5084501;28;20108;-48
2022/01/27 12:34:34;;;;;;;15.45;4.90;;;9.20;99.90;;;;;;5084063;28;20148;-48
2022/01/27 12:37:11;;;;;;;17.25;5.10;;;9.20;99.90;;;;;;5081323;28;20075;-50
2022/01/27 12:39:38;;;;;;;17.85;5.03;;;9.20;99.90;;;;;;5085949;28;20417;-50
2022/01/27 12:42:06;;;;;;;17.70;5.28;;;9.10;99.90;;;;;;5087296;28;20107;-49
2022/01/27 12:44:33;;;;;;;15.10;4.63;;;9.10;99.90;;;;;;5081506;28;20037;-49
2022/01/27 12:47:08;;;;;;;16.05;4.88;;;9.10;99.90;;;;;;5086118;28;20036;-49
2022/01/27 12:49:39;;;;;;;17.60;4.88;;;9.10;99.90;;;;;;5088099;28;20037;-49
2022/01/27 12:52:07;;;;;;;14.77;4.60;;;9.10;99.90;;;;;;5086309;28;20047;-48
2022/01/27 12:54:33;;;;;;;18.08;4.10;;;9.00;99.90;;;;;;5081507;28;20088;-50
2022/01/27 12:56:59;;;;;;;15.77;3.88;;;9.10;99.90;;;;;;5080499;28;20045;-50
2022/01/27 12:59:30;;;;;;;15.07;3.50;;;9.10;99.90;;;;;;5083486;28;20041;-49
2022/01/27 13:01:57;;;;;;;15.57;3.55;;;9.00;99.90;;;;;;5085653;28;20443;-52
2022/01/27 13:04:24;;;;;;;14.95;3.90;;;9.00;99.90;;;;;;5082141;28;20040;-50
2022/01/27 13:06:54;;;;;;;11.57;3.97;;;9.00;99.90;;;;;;5082970;28;20587;-50
2022/01/27 13:09:20;;;;;;;14.65;3.78;;;9.00;99.90;;;;;;5082714;28;20029;-51
2022/01/27 13:11:48;;;;;;;12.95;3.95;;;9.00;99.90;;;;;;5086659;28;20056;-49
2022/01/27 13:14:14;;;;;;;18.85;4.13;;;8.90;99.90;;;;;;5086337;28;20068;-51
2022/01/27 13:16:47;;;;;;;16.33;4.35;;;8.90;99.90;;;;;;5088709;28;20100;-53
2022/01/27 13:19:23;;;;;;;13.23;3.97;;;9.00;99.90;;;;;;5086651;28;20078;-49
2022/01/27 13:21:59;;;;;;;18.70;4.25;;;9.00;99.90;;;;;;5089142;28;20055;-48
2022/01/27 13:24:26;;;;;;;18.50;3.80;;;9.00;99.90;;;;;;5082807;28;20075;-52
2022/01/27 13:27:04;;;;;;;14.65;3.60;;;9.10;99.90;;;;;;5088619;28;20102;-52
2022/01/27 13:29:42;;;;;;;15.27;3.08;;;9.10;99.90;;;;;;5084996;28;20037;-48
2022/01/27 13:32:09;;;;;;;13.88;3.38;;;9.20;99.90;;;;;;5082251;28;20063;-49
2022/01/27 13:34:34;;;;;;;17.90;3.70;;;9.20;99.90;;;;;;5086318;28;20255;-48
2022/01/27 13:37:01;;;;;;;15.95;3.88;;;9.20;99.90;;;;;;5086109;28;20119;-49
2022/01/27 13:41:53;;;;;;;19.80;3.97;;;9.30;99.90;;;;;;5093484;28;20048;-52